Impacts METAR Board
IDs:

KMEM - Memphis Intl, TN, US

Updated at: 1300 UTC 21 Aug 2019
Potential Impact None Slight Moderate High
Time 21/01Z 21/02Z 21/03Z 21/04Z 21/05Z 21/06Z 21/07Z 21/08Z 21/09Z 21/10Z 21/11Z 21/12Z 21/13Z
Temp87 81 76 76 76 76 77 78 77 76 76 76 78
Dewpt73 71 71 71 71 70 70 71 71 71 71 72 73
Altim30.06 30.14 30.11 30.06 29.99 29.98 29.99 30.01 30.02 30.02 30.02 30.04 30.06
VIS10 9 10 10 10 10 10 10 10 10 10 10 10
CIG-- 33 140 250 250 250 250 250 250 250 190 190 250
CoverSCTOVCBKNBKNBKNBKNBKNBKNBKNBKNBKNBKNBKN
FltCatVFRVFRVFRVFRVFRVFRVFRVFRVFRVFRVFRVFRVFR
WX--TS----------------------
WDir27080702101901901400036090140170
WSpd4 16 8 4 12 6 3 3 5 4 4 4 4
WGst-- 25 -- -- -- -- -- -- -- -- -- -- --
Raw hourly METARs
KMEM 210054Z 27004KT 10SM FEW048 SCT250 31/23 A3006 RMK AO2 LTG DSNT N AND NE SLP176 T03060228
KMEM 210154Z 08016G25KT 9SM TS SCT022 BKN033 OVC040CB 27/22 A3014 RMK AO2 PK WND 04031/0138 WSHFT 0121 LTG DSNT NE AND E TSB41 PRESRR SLP202 CONS LTGICCG NE-SE TS NE-SE MOV S T02720217
KMEM 210254Z COR 07008KT 10SM FEW065 SCT080 BKN140 24/22 A3011 RMK AO2 LTG DSNT E RAB09E33TSE52 SLP193 P0000 60000 T02440217 50026
KMEM 210354Z 21004KT 10SM SCT150 BKN250 24/22 A3006 RMK AO2 SLP176 T02440217
KMEM 210454Z 19012KT 10SM SCT018 BKN250 24/22 A2999 RMK AO2 PRESFR SLP150 T02440217
KMEM 210554Z 19006KT 10SM SCT021 BKN250 24/21 A2998 RMK AO2 SLP147 60000 T02440211 10328 20239 403440239 56044
KMEM 210654Z 14003KT 10SM SCT021 BKN250 25/21 A2999 RMK AO2 SLP149 T02500211
KMEM 210754Z VRB03KT 10SM SCT180 BKN250 26/22 A3001 RMK AO2 SLP157 T02560217
KMEM 210854Z VRB05KT 10SM SCT180 BKN250 25/22 A3002 RMK AO2 SLP161 T02500217 53014
KMEM 210954Z 36004KT 10SM SCT190 BKN250 24/22 A3002 RMK AO2 SLP161 T02440217
KMEM 211054Z 09004KT 10SM BKN190 BKN250 24/22 A3002 RMK AO2 SLP159 T02440217
KMEM 211154Z 14004KT 10SM BKN190 BKN250 24/22 A3004 RMK AO2 SLP166 T02440222 10256 20239 53005
KMEM 211254Z 17004KT 10SM SCT190 BKN250 26/23 A3006 RMK AO2 SLP174 T02560228



Page loaded:  13:52 UTC  |   06:52 AM Pacific  |   07:52 AM Mountain  |   08:52 AM Central  |   09:52 AM Eastern

 

ADVISORIES

FORECASTS

FORECASTS

OBSERVATIONS

USER TOOLS

ABOUT US